Relevés horaires Matro (Suisse)


Relevés horaires à Matro - Lundi 15 Déc. 2014
Heure UTC1 Température [°C] Vent [km/h] Hum. [%] Pres.4 [hPa] Visi. [Km] Nébu. [octa] Préc.5 [mm] Cond.
2m. Res. Ros. Dir.2 Vit. Moy. Raf.3
23:00 -0.7 -7.3 -0.7 SSE 29.6 29.6 33.3 100 850(-1.2/3h) -- -- -- --
22:00 -1.0 -7.3 -1.0 SSE 25.9 25.9 27.8 100 850(-1.0/3h) -- -- -- --
21:00 -1.0 -6.3 -1.0 SSE 18.5 24.1 27.8 100 850(-0.6/3h) -- -- -- --
20:00 -1.1 -7.2 -1.7 SSE 24.1 24.1 27.8 96 850(-0.6/3h) -- -- -- --
19:00 -1.1 -6.1 -1.7 SSE 16.7 18.5 20.4 96 850(-0.6/3h) -- -- -- --
18:00 -1.3 -6.6 -1.7 SSE 18.5 20.4 24.1 97 850(-0.6/3h) -- -- -- --
17:00 -1.8 -7 -1.8 SE 16.7 18.5 24.1 100 850(-0.4/3h) -- -- -- --
16:00 -1.6 -7.3 -1.6 SE 20.4 20.4 24.1 100 850(-0.5/3h) -- -- -- --
15:00 -0.8 -5.4 -2.2 ESE 14.8 18.5 20.4 90 850(-0.8/3h) -- -- -- --
14:00 -1.1 -5.4 -2.0 E 13.0 18.5 20.4 94 850(-1.2/3h) -- -- -- --
13:00 -0.9 -5.8 -1.9 ESE 16.7 18.5 20.4 93 850(-1.1/3h) -- -- -- --
12:00 -0.9 -5.5 -2.3 SE 14.8 25.9 29.6 90 850(-0.6/3h) -- -- -- --
11:00 -1.2 -6.2 -1.9 SE 16.7 22.2 25.9 95 850(0.1/3h) -- -- -- --
10:00 -1.0 -6.6 -1.5 ESE 20.4 20.4 24.1 96 850(0.3/3h) -- -- -- --
09:00 -1.5 -7.2 -1.6 ESE 20.4 25.9 29.6 99 850 -- -- -- --
08:00 -1.6 -7.3 -1.6 SE 20.4 20.4 24.1 100 850(0.3/3h) -- -- -- --
07:00 -1.2 -6.8 -2.0 SSE 20.4 25.9 29.6 94 850(0.3/3h) -- -- -- --
06:00 -1.5 -8.2 -1.5 ESE 27.8 27.8 31.5 100 850(-0.3/3h) -- -- -- --
05:00 -1.5 -7.5 -1.5 ESE 22.2 24.1 27.8 100 850(-0.6/3h) -- -- -- --
04:00 -1.6 -7.3 -1.6 ESE 20.4 25.9 27.8 100 850(-0.6/3h) -- -- -- --
03:00 -1.8 -8.1 -1.8 SE 24.1 27.8 31.5 100 850(-0.5/3h) -- -- -- --
02:00 -1.4 -7.8 -1.9 SSE 25.9 27.8 31.5 96 850(-0.3/3h) -- -- -- --
01:00 -1.1 -7.4 -1.1 SSE 25.9 25.9 27.8 100 850(-0.3/3h) -- -- -- --
00:00 -1.1 -7 -1.2 SSE 22.2 31.5 37.0 99 850(-0.1/3h) -- -- -- --

1 Coordinated Universal Time. Actuellement il est 07:00 locale et 05:00 UTC.

2 Le vent souffle depuis la direction indiquée vers la direction oposée.

3 Les rafales max. sont disponible 40 min après l'heure du relevé.

4 Pour les stations d'altitude (plus de 600m) le géopotentiel du niveau le plus proche de la pression obligatoire est indiqué.

5 Les stations disposant d'un diffuseur peuvent indiquer "trace". Cela signifie que des précipitations ont touchés le sol mais que la quantité est inférieure à 0.1 mm.

Copyright

Les données affichées sur cette page sont la propriété exclusive de Météo Suisse.

Récapitulatif de la journée
Température [°C] Vent [km/h] Ensoleillement4 [h] Precipitations totale5 [mm] Pression [Hpa]
Min1 Max.2 Moy.3 Max. Min Max.
-2.0 -0.7 23.7 37.0 0 h 30 min 0 850.0 850.0

1 Température minimale relevée entre 18:00 UTC la veille et 18:00 UTC le jour donné.

2 Température maximale relevée entre 06:00 UTC le jour donné et 06:00 UTC le lendemain.

3 Vent moyen de la journée basé sur les relevés horaires.

4 Ensoleillement en heures relevé entre 06:00 UTC la veille et 06:00 UTC le jour donné.

5 Précipitations totales tombées entre 06:00 UTC la jour donné et 06:00 UTC le lendemain.

Graphiques horaires